createdAt,value
2019-04-22T00:00:44.929Z,0.00
2019-04-22T00:01:43.573Z,0.00
2019-04-22T00:02:50.306Z,0.00
2019-04-22T00:03:52.507Z,0.00
2019-04-22T00:04:55.109Z,0.00
2019-04-22T00:06:07.243Z,0.00
2019-04-22T00:07:03.297Z,0.00
2019-04-22T00:08:08.812Z,0.00
2019-04-22T00:09:12.541Z,0.00
2019-04-22T00:10:13.458Z,0.00
2019-04-22T00:11:14.495Z,0.00
2019-04-22T00:12:16.247Z,0.00
2019-04-22T00:13:11.330Z,0.00
2019-04-22T00:14:05.602Z,0.00
2019-04-22T00:15:08.010Z,0.00
2019-04-22T00:16:07.164Z,0.00
2019-04-22T00:17:30.178Z,0.00
2019-04-22T00:18:13.230Z,0.00
2019-04-22T00:19:15.278Z,0.00
2019-04-22T00:20:12.078Z,0.00
2019-04-22T00:21:18.372Z,0.00
2019-04-22T00:22:17.434Z,0.00
2019-04-22T00:23:03.716Z,0.00
2019-04-22T00:24:10.912Z,0.00
2019-04-22T00:25:13.304Z,0.00
2019-04-22T00:26:14.841Z,0.00
2019-04-22T00:27:14.404Z,0.00
2019-04-22T00:28:08.249Z,0.00
2019-04-22T00:29:35.686Z,0.00
2019-04-22T00:30:13.550Z,0.00
2019-04-22T00:31:10.216Z,0.00
2019-04-22T00:32:05.660Z,0.00
2019-04-22T00:33:11.629Z,0.00
2019-04-22T00:34:06.753Z,0.00
2019-04-22T00:35:07.256Z,0.00
2019-04-22T00:36:08.929Z,0.00
2019-04-22T00:37:13.293Z,0.00
2019-04-22T00:38:13.695Z,0.00
2019-04-22T00:38:59.178Z,0.00
2019-04-22T00:40:07.314Z,0.00
2019-04-22T00:41:05.815Z,0.00
2019-04-22T00:42:08.108Z,0.00
2019-04-22T00:43:06.411Z,0.00
2019-04-22T00:44:15.736Z,0.00
2019-04-22T00:45:15.633Z,0.00
2019-04-22T00:46:11.351Z,0.00
2019-04-22T00:47:07.353Z,0.00
2019-04-22T00:48:16.397Z,0.00
2019-04-22T00:49:52.825Z,0.00
2019-04-22T00:50:23.884Z,0.00
2019-04-22T00:52:21.748Z,0.00
2019-04-22T00:53:11.637Z,0.00
2019-04-22T00:54:08.714Z,0.00
2019-04-22T00:55:14.970Z,0.00
2019-04-22T00:56:24.675Z,0.00
2019-04-22T00:57:08.784Z,0.00
2019-04-22T00:58:12.414Z,0.00
2019-04-22T00:59:06.766Z,0.00
2019-04-22T01:01:12.217Z,0.00
2019-04-22T01:02:15.257Z,0.00
2019-04-22T01:03:10.933Z,0.00
2019-04-22T01:04:14.565Z,0.00
2019-04-22T01:05:07.757Z,0.00
2019-04-22T01:06:12.013Z,0.00
2019-04-22T01:07:06.087Z,0.00
2019-04-22T01:08:15.188Z,0.00
2019-04-22T01:09:25.145Z,0.00
2019-04-22T01:10:12.722Z,0.00
2019-04-22T01:11:14.760Z,0.00
2019-04-22T01:12:07.310Z,0.00
2019-04-22T01:13:04.903Z,0.00
2019-04-22T01:14:06.455Z,0.00
2019-04-22T01:15:07.416Z,0.00
2019-04-22T01:16:14.808Z,0.00
2019-04-22T01:17:05.986Z,0.00
2019-04-22T01:18:02.176Z,0.00
2019-04-22T01:19:07.088Z,0.00
2019-04-22T01:20:23.172Z,0.00
2019-04-22T01:21:17.433Z,0.00
2019-04-22T01:22:11.193Z,0.00
2019-04-22T01:23:05.814Z,0.00
2019-04-22T01:24:05.844Z,0.00
2019-04-22T01:25:03.621Z,0.00
2019-04-22T01:26:02.487Z,0.00
2019-04-22T01:27:00.500Z,0.00
2019-04-22T01:27:57.180Z,0.00
2019-04-22T01:28:59.836Z,0.00
2019-04-22T01:29:59.739Z,0.00
2019-04-22T01:30:51.459Z,0.00
2019-04-22T01:31:45.631Z,0.00
2019-04-22T01:32:45.662Z,0.00
2019-04-22T01:33:49.741Z,0.00
2019-04-22T01:35:00.954Z,0.00
2019-04-22T01:36:06.816Z,0.00
2019-04-22T01:37:02.962Z,0.00
2019-04-22T01:38:01.654Z,0.00
2019-04-22T01:39:05.426Z,0.00
2019-04-22T01:40:14.789Z,0.00
2019-04-22T01:41:07.121Z,0.00
2019-04-22T01:42:06.093Z,0.00
2019-04-22T01:43:07.019Z,0.00
2019-04-22T01:44:16.458Z,0.00
2019-04-22T01:45:11.832Z,0.00
2019-04-22T01:46:09.750Z,0.00
2019-04-22T01:47:12.864Z,0.00
2019-04-22T01:48:10.459Z,0.00
2019-04-22T01:49:08.201Z,0.00
2019-04-22T01:50:09.993Z,0.00
2019-04-22T01:51:02.170Z,0.00
2019-04-22T01:52:14.067Z,0.00
2019-04-22T01:54:15.168Z,0.00
2019-04-22T01:56:06.019Z,0.00
2019-04-22T01:57:04.964Z,0.00
2019-04-22T01:58:08.566Z,0.00
2019-04-22T01:58:59.447Z,0.00
2019-04-22T02:00:02.243Z,0.00
2019-04-22T02:01:09.544Z,0.00
2019-04-22T02:02:14.384Z,0.00
2019-04-22T02:03:12.475Z,0.00
2019-04-22T02:04:13.209Z,0.00
2019-04-22T02:05:16.143Z,0.00
2019-04-22T02:06:10.141Z,0.00
2019-04-22T02:07:12.529Z,0.00
2019-04-22T02:08:16.612Z,0.00
2019-04-22T02:09:20.417Z,0.00
2019-04-22T02:10:11.060Z,0.00
2019-04-22T02:11:07.755Z,0.00
2019-04-22T02:13:08.299Z,0.00
2019-04-22T02:14:17.506Z,0.00
2019-04-22T02:15:10.462Z,0.00
2019-04-22T02:16:17.533Z,0.00
2019-04-22T02:17:14.527Z,0.00
2019-04-22T02:18:18.579Z,0.00
2019-04-22T02:19:11.745Z,0.00
2019-04-22T02:20:27.002Z,0.00
2019-04-22T02:21:07.735Z,0.00
2019-04-22T02:22:07.306Z,0.00
2019-04-22T02:23:30.310Z,0.00
2019-04-22T02:24:09.772Z,0.00
2019-04-22T02:25:09.458Z,0.00
2019-04-22T02:26:27.649Z,0.00
2019-04-22T02:27:14.012Z,0.00
2019-04-22T02:28:16.788Z,0.00
2019-04-22T02:29:06.524Z,0.00
2019-04-22T02:30:05.425Z,0.00
2019-04-22T02:32:19.462Z,0.00
2019-04-22T02:33:44.140Z,0.00
2019-04-22T02:35:41.217Z,0.00
2019-04-22T02:36:27.883Z,0.00
2019-04-22T02:37:13.033Z,0.00
2019-04-22T02:38:19.545Z,0.00
2019-04-22T02:39:15.695Z,0.00
2019-04-22T02:40:09.642Z,0.00
2019-04-22T02:41:22.815Z,0.00
2019-04-22T02:42:10.777Z,0.00
2019-04-22T02:43:24.390Z,0.00
2019-04-22T02:45:09.654Z,0.00
2019-04-22T02:48:25.509Z,0.00
2019-04-22T02:51:20.388Z,0.00
2019-04-22T02:52:19.953Z,0.00
2019-04-22T02:53:19.051Z,0.00
2019-04-22T02:54:31.568Z,0.00
2019-04-22T02:55:23.674Z,0.00
2019-04-22T02:56:25.685Z,0.00
2019-04-22T02:57:27.378Z,0.00
2019-04-22T02:58:12.580Z,0.00
2019-04-22T03:01:24.816Z,0.00
2019-04-22T03:02:12.016Z,0.00
2019-04-22T03:03:21.061Z,0.00
2019-04-22T03:04:09.657Z,0.00
2019-04-22T03:05:19.443Z,0.00
2019-04-22T03:07:09.345Z,0.00
2019-04-22T03:08:21.237Z,0.00
2019-04-22T03:10:18.800Z,0.00
2019-04-22T03:12:23.735Z,0.00
2019-04-22T03:13:21.367Z,0.00
2019-04-22T03:15:09.538Z,0.00
2019-04-22T03:16:17.843Z,0.00
2019-04-22T03:18:19.516Z,0.00
2019-04-22T03:20:09.190Z,0.00
2019-04-22T03:21:16.021Z,0.00
2019-04-22T03:23:35.089Z,0.00
2019-04-22T03:24:25.731Z,0.00
2019-04-22T03:25:42.380Z,0.00
2019-04-22T03:26:22.737Z,0.00
2019-04-22T03:27:19.133Z,0.00
2019-04-22T03:28:10.245Z,0.00
2019-04-22T03:29:30.685Z,0.00
2019-04-22T03:30:41.683Z,0.00
2019-04-22T03:31:27.351Z,0.00
2019-04-22T03:32:39.276Z,0.00
2019-04-22T03:34:58.615Z,0.00
2019-04-22T03:36:41.394Z,0.00
2019-04-22T03:38:19.841Z,0.00
2019-04-22T03:39:27.418Z,0.00
2019-04-22T03:42:17.615Z,4.00
2019-04-22T03:43:13.720Z,0.00
2019-04-22T03:44:24.810Z,0.00
2019-04-22T03:46:14.675Z,0.00
2019-04-22T03:47:21.232Z,4.00
2019-04-22T03:48:07.968Z,0.00
2019-04-22T03:50:25.852Z,4.00
2019-04-22T03:51:16.419Z,4.00
2019-04-22T03:54:19.135Z,8.00
2019-04-22T03:56:36.985Z,12.00
2019-04-22T03:57:44.635Z,12.00
2019-04-22T03:58:21.487Z,12.00
2019-04-22T03:59:26.984Z,16.00
2019-04-22T04:00:17.821Z,20.00
2019-04-22T04:01:21.871Z,20.00
2019-04-22T04:02:22.012Z,24.00
2019-04-22T04:04:27.695Z,32.00
2019-04-22T04:05:24.265Z,40.00
2019-04-22T04:06:20.630Z,44.00
2019-04-22T04:08:15.115Z,56.00
2019-04-22T04:09:19.322Z,64.00
2019-04-22T04:10:25.283Z,72.00
2019-04-22T04:11:20.051Z,80.00
2019-04-22T04:12:14.313Z,92.00
2019-04-22T04:13:16.810Z,100.00
2019-04-22T04:14:22.854Z,108.00
2019-04-22T04:16:12.982Z,132.00
2019-04-22T04:17:26.230Z,148.00
2019-04-22T04:18:12.899Z,160.00
2019-04-22T04:19:28.183Z,180.00
2019-04-22T04:20:21.546Z,196.00
2019-04-22T04:22:24.767Z,228.00
2019-04-22T04:23:24.412Z,248.00
2019-04-22T04:26:33.491Z,312.00
2019-04-22T04:28:31.589Z,360.00
2019-04-22T04:29:26.015Z,384.00
2019-04-22T04:31:24.552Z,440.00
2019-04-22T04:32:31.009Z,468.00
2019-04-22T04:33:18.500Z,496.00
2019-04-22T04:34:28.530Z,524.00
2019-04-22T04:35:23.710Z,556.00
2019-04-22T04:36:14.603Z,588.00
2019-04-22T04:37:38.925Z,616.00
2019-04-22T04:38:08.196Z,656.00
2019-04-22T04:40:21.286Z,736.00
2019-04-22T04:41:23.133Z,776.00
2019-04-22T04:42:25.557Z,820.00
2019-04-22T04:43:19.013Z,860.00
2019-04-22T04:44:22.657Z,904.00
2019-04-22T04:46:32.246Z,992.00
2019-04-22T04:48:13.635Z,1076.00
2019-04-22T04:50:12.035Z,1164.00
2019-04-22T04:51:30.517Z,1212.00
2019-04-22T04:52:27.613Z,1256.00
2019-04-22T04:54:28.792Z,1336.00
2019-04-22T04:57:16.532Z,1468.00
2019-04-22T04:58:36.813Z,1516.00
2019-04-22T04:59:22.855Z,1560.00
2019-04-22T05:05:31.797Z,1824.00
2019-04-22T05:06:12.700Z,1864.00
2019-04-22T05:07:18.657Z,1900.00
2019-04-22T05:08:19.305Z,1944.00
2019-04-22T05:11:16.373Z,2060.00
2019-04-22T05:14:09.390Z,2180.00
2019-04-22T05:15:18.417Z,2232.00
2019-04-22T05:16:25.077Z,2424.00
2019-04-22T05:17:16.112Z,3172.00
2019-04-22T05:20:24.236Z,2968.00
2019-04-22T05:21:12.296Z,2936.00
2019-04-22T05:22:14.825Z,3832.00
2019-04-22T05:23:11.978Z,4336.00
2019-04-22T05:25:16.504Z,3964.00
2019-04-22T05:26:12.512Z,5092.00
2019-04-22T05:27:14.953Z,4648.00
2019-04-22T05:28:07.593Z,6672.00
2019-04-22T05:29:15.166Z,8432.00
2019-04-22T05:30:26.703Z,7140.00
2019-04-22T05:31:08.596Z,5668.00
2019-04-22T05:33:07.360Z,5488.00
2019-04-22T05:34:09.567Z,5080.00
2019-04-22T05:35:06.816Z,4828.00
2019-04-22T05:36:10.572Z,5216.00
2019-04-22T05:37:08.727Z,5624.00
2019-04-22T05:38:13.343Z,5048.00
2019-04-22T05:39:09.872Z,4436.00
2019-04-22T05:40:10.078Z,4548.00
2019-04-22T05:41:02.343Z,4228.00
2019-04-22T05:42:10.508Z,4200.00
2019-04-22T05:43:08.011Z,5228.00
2019-04-22T05:44:08.439Z,4960.00
2019-04-22T05:45:10.341Z,4800.00
2019-04-22T05:46:02.831Z,5412.00
2019-04-22T05:47:09.941Z,6268.00
2019-04-22T05:48:06.449Z,7196.00
2019-04-22T05:49:09.740Z,6560.00
2019-04-22T05:50:06.458Z,7540.00
2019-04-22T05:51:01.130Z,9332.00
2019-04-22T05:52:05.262Z,10116.00
2019-04-22T05:53:00.785Z,10624.00
2019-04-22T05:54:13.315Z,11668.00
2019-04-22T05:55:09.267Z,12156.00
2019-04-22T05:56:17.459Z,11520.00
2019-04-22T05:57:12.940Z,10912.00
2019-04-22T05:58:02.473Z,11264.00
2019-04-22T05:59:04.598Z,11856.00
2019-04-22T06:00:06.507Z,12020.00
2019-04-22T06:01:29.549Z,12004.00
2019-04-22T06:03:06.493Z,12216.00
2019-04-22T06:04:11.530Z,11428.00
2019-04-22T06:05:06.587Z,10644.00
2019-04-22T06:06:09.378Z,11860.00
2019-04-22T06:07:04.917Z,12588.00
2019-04-22T06:08:04.187Z,12964.00
2019-04-22T06:09:07.178Z,12616.00
2019-04-22T06:10:14.360Z,12048.00
2019-04-22T06:11:14.880Z,11792.00
2019-04-22T06:11:58.876Z,12552.00
2019-04-22T06:13:00.759Z,13084.00
2019-04-22T06:14:02.643Z,12916.00
2019-04-22T06:15:10.022Z,13056.00
2019-04-22T06:16:02.148Z,13212.00
2019-04-22T06:17:03.848Z,12996.00
2019-04-22T06:18:10.757Z,12888.00
2019-04-22T06:19:07.479Z,13984.00
2019-04-22T06:20:02.752Z,15072.00
2019-04-22T06:21:09.019Z,14880.00
2019-04-22T06:22:06.862Z,14016.00
2019-04-22T06:24:14.038Z,12788.00
2019-04-22T06:25:09.863Z,13336.00
2019-04-22T06:26:09.850Z,14528.00
2019-04-22T06:27:18.744Z,15776.00
2019-04-22T06:28:16.059Z,17312.00
2019-04-22T06:29:13.540Z,17504.00
2019-04-22T06:30:06.059Z,16160.00
2019-04-22T06:31:10.773Z,15936.00
2019-04-22T06:33:11.297Z,17312.00
2019-04-22T06:34:14.368Z,19552.00
2019-04-22T06:35:15.037Z,21920.00
2019-04-22T06:37:11.938Z,22304.00
2019-04-22T06:39:10.420Z,19840.00
2019-04-22T06:40:10.158Z,24320.00
2019-04-22T06:41:09.151Z,30272.00
2019-04-22T06:42:09.808Z,32864.00
2019-04-22T06:44:16.171Z,25056.00
2019-04-22T06:45:07.205Z,18368.00
2019-04-22T06:46:11.610Z,15072.00
2019-04-22T06:47:10.588Z,14624.00
2019-04-22T06:48:09.794Z,13888.00
2019-04-22T06:49:09.413Z,12904.00
2019-04-22T06:50:07.547Z,12152.00
2019-04-22T06:51:00.176Z,11672.00
2019-04-22T06:52:08.111Z,11468.00
2019-04-22T06:53:06.778Z,11372.00
2019-04-22T06:54:07.247Z,11352.00
2019-04-22T06:55:07.601Z,11412.00
2019-04-22T06:56:04.888Z,11468.00
2019-04-22T06:57:06.243Z,11500.00
2019-04-22T06:58:04.992Z,11552.00
2019-04-22T06:59:08.506Z,11684.00
2019-04-22T07:00:05.236Z,12044.00
2019-04-22T07:01:04.256Z,12768.00
2019-04-22T07:03:30.089Z,20544.00
2019-04-22T07:04:08.023Z,23232.00
2019-04-22T07:05:03.012Z,22368.00
2019-04-22T07:06:09.488Z,23744.00
2019-04-22T07:07:06.666Z,25664.00
2019-04-22T07:08:18.292Z,27136.00
2019-04-22T07:09:22.064Z,27584.00
2019-04-22T07:10:18.119Z,28160.00
2019-04-22T07:12:10.038Z,28768.00
2019-04-22T07:13:02.221Z,28704.00
2019-04-22T07:15:21.812Z,27552.00
2019-04-22T07:17:02.135Z,32096.00
2019-04-22T07:18:04.126Z,31712.00
2019-04-22T07:20:08.336Z,31584.00
2019-04-22T07:21:00.975Z,31008.00
2019-04-22T07:22:03.426Z,31616.00
2019-04-22T07:23:10.585Z,31488.00
2019-04-22T07:24:24.172Z,33728.00
2019-04-22T07:25:06.608Z,36544.00
2019-04-22T07:26:04.256Z,35904.00
2019-04-22T07:27:08.119Z,34176.00
2019-04-22T07:28:08.372Z,35200.00
2019-04-22T07:29:01.287Z,35616.00
2019-04-22T07:30:09.412Z,33632.00
2019-04-22T07:30:57.663Z,35808.00
2019-04-22T07:33:19.651Z,36288.00
2019-04-22T07:34:08.128Z,35904.00
2019-04-22T07:35:08.562Z,38112.00
2019-04-22T07:37:22.669Z,37056.00
2019-04-22T07:38:05.919Z,36064.00
2019-04-22T07:39:05.613Z,36704.00
2019-04-22T07:40:02.303Z,36512.00
2019-04-22T07:40:59.300Z,38144.00
2019-04-22T07:42:06.582Z,39648.00
2019-04-22T07:43:09.047Z,40416.00
2019-04-22T07:45:08.607Z,41952.00
2019-04-22T07:46:05.199Z,42272.00
2019-04-22T07:47:13.930Z,41088.00
2019-04-22T07:48:15.238Z,38848.00
2019-04-22T07:49:02.137Z,38912.00
2019-04-22T07:50:10.972Z,38976.00
2019-04-22T07:52:03.727Z,40608.00
2019-04-22T07:53:06.848Z,39936.00
2019-04-22T07:54:01.806Z,40224.00
2019-04-22T07:55:02.657Z,42176.00
2019-04-22T07:56:05.434Z,43136.00
2019-04-22T07:57:08.912Z,46656.00
2019-04-22T07:58:05.321Z,47008.00
2019-04-22T07:59:04.139Z,44544.00
2019-04-22T08:00:11.156Z,43360.00
2019-04-22T08:01:12.266Z,45120.00
2019-04-22T08:02:02.049Z,48256.00
2019-04-22T08:03:09.315Z,47360.00
2019-04-22T08:04:44.822Z,44800.00
2019-04-22T08:07:03.864Z,42816.00
2019-04-22T08:08:07.249Z,45120.00
2019-04-22T08:09:12.288Z,44128.00
2019-04-22T08:10:17.208Z,44128.00
2019-04-22T08:11:10.361Z,45280.00
2019-04-22T08:11:59.429Z,45184.00
2019-04-22T08:13:03.788Z,45856.00
2019-04-22T08:13:58.740Z,44320.00
2019-04-22T08:15:06.203Z,41120.00
2019-04-22T08:16:02.567Z,38080.00
2019-04-22T08:17:17.181Z,38656.00
2019-04-22T08:18:01.555Z,43424.00
2019-04-22T08:19:10.526Z,44256.00
2019-04-22T08:21:07.612Z,46624.00
2019-04-22T08:21:56.985Z,49664.00
2019-04-22T08:23:04.921Z,51232.00
2019-04-22T08:24:04.557Z,50304.00
2019-04-22T08:25:01.310Z,50592.00
2019-04-22T08:26:00.982Z,50848.00
2019-04-22T08:27:04.422Z,47904.00
2019-04-22T08:28:03.037Z,45184.00
2019-04-22T08:29:11.554Z,46752.00
2019-04-22T08:30:07.273Z,48928.00
2019-04-22T08:31:10.792Z,51264.00
2019-04-22T08:32:01.113Z,49984.00
2019-04-22T08:33:09.773Z,48032.00
2019-04-22T08:34:12.185Z,48288.00
2019-04-22T08:35:09.386Z,47264.00
2019-04-22T08:36:26.317Z,49216.00
2019-04-22T08:37:35.704Z,46752.00
2019-04-22T08:38:36.779Z,46880.00
2019-04-22T08:39:08.327Z,48960.00
2019-04-22T08:40:07.614Z,46752.00
2019-04-22T08:41:08.930Z,45792.00
2019-04-22T08:41:59.598Z,47616.00
2019-04-22T08:44:17.405Z,48320.00
2019-04-22T08:45:09.266Z,31200.00
2019-04-22T08:46:15.206Z,12900.00
2019-04-22T08:47:16.205Z,9976.00
2019-04-22T08:48:01.390Z,9036.00
2019-04-22T08:48:59.073Z,8384.00
2019-04-22T08:50:12.044Z,7872.00
2019-04-22T08:51:00.770Z,7472.00
2019-04-22T08:52:16.544Z,7176.00
2019-04-22T08:53:10.990Z,7012.00
2019-04-22T08:54:09.460Z,6856.00
2019-04-22T08:55:07.738Z,6700.00
2019-04-22T08:56:21.561Z,6580.00
2019-04-22T08:57:01.877Z,6468.00
2019-04-22T08:59:07.919Z,6264.00
2019-04-22T09:00:02.920Z,6180.00
2019-04-22T09:01:04.600Z,6084.00
2019-04-22T09:02:07.742Z,6016.00
2019-04-22T09:03:04.801Z,5936.00
2019-04-22T09:04:02.250Z,5856.00
2019-04-22T09:05:00.166Z,5784.00
2019-04-22T09:06:04.880Z,5708.00
2019-04-22T09:07:12.357Z,5652.00
2019-04-22T09:08:07.366Z,5592.00
2019-04-22T09:09:09.114Z,5528.00
2019-04-22T09:10:02.082Z,5476.00
2019-04-22T09:11:08.188Z,5424.00
2019-04-22T09:12:04.368Z,5372.00
2019-04-22T09:13:14.310Z,5308.00
2019-04-22T09:14:08.914Z,5264.00
2019-04-22T09:15:01.045Z,5228.00
2019-04-22T09:16:03.618Z,5172.00
2019-04-22T09:17:05.683Z,5136.00
2019-04-22T09:18:08.105Z,5100.00
2019-04-22T09:20:00.277Z,5040.00
2019-04-22T09:21:15.107Z,5012.00
2019-04-22T09:22:09.319Z,4992.00
2019-04-22T09:24:05.279Z,4952.00
2019-04-22T09:24:57.279Z,4936.00
2019-04-22T09:26:06.665Z,4924.00
2019-04-22T09:27:05.086Z,4908.00
2019-04-22T09:28:05.745Z,4904.00
2019-04-22T09:29:08.133Z,4892.00
2019-04-22T09:30:07.169Z,4876.00
2019-04-22T09:31:08.086Z,4868.00
2019-04-22T09:32:09.538Z,4864.00
2019-04-22T09:33:09.848Z,4856.00
2019-04-22T09:33:59.566Z,4860.00
2019-04-22T09:35:02.530Z,4856.00
2019-04-22T09:36:01.808Z,4848.00
2019-04-22T09:38:23.413Z,4816.00
2019-04-22T09:39:02.428Z,4804.00
2019-04-22T09:40:08.777Z,4792.00
2019-04-22T09:40:59.902Z,4792.00
2019-04-22T09:42:07.820Z,4780.00
2019-04-22T09:43:05.013Z,4776.00
2019-04-22T09:44:05.460Z,4772.00
2019-04-22T09:45:01.902Z,4756.00
2019-04-22T09:45:58.180Z,4748.00
2019-04-22T09:47:05.114Z,4748.00
2019-04-22T09:48:08.403Z,4748.00
2019-04-22T09:49:06.509Z,4744.00
2019-04-22T09:50:02.700Z,4736.00
2019-04-22T09:51:03.674Z,4732.00
2019-04-22T09:52:08.526Z,4728.00
2019-04-22T09:53:02.368Z,4716.00
2019-04-22T09:54:08.628Z,4712.00
2019-04-22T09:55:10.968Z,4712.00
2019-04-22T09:56:07.809Z,4688.00
2019-04-22T09:57:01.555Z,4688.00
2019-04-22T09:58:03.209Z,4672.00
2019-04-22T09:59:02.436Z,4668.00
2019-04-22T10:00:12.161Z,4680.00
2019-04-22T10:01:07.704Z,4692.00
2019-04-22T10:02:13.335Z,4696.00
2019-04-22T10:04:01.005Z,4708.00
2019-04-22T10:05:09.423Z,4712.00
2019-04-22T10:06:14.577Z,4724.00
2019-04-22T10:06:59.586Z,4744.00
2019-04-22T10:08:08.049Z,4776.00
2019-04-22T10:11:04.719Z,4816.00
2019-04-22T10:12:02.214Z,4840.00
2019-04-22T10:13:03.221Z,4868.00
2019-04-22T10:15:15.819Z,4916.00
2019-04-22T10:16:03.131Z,4936.00
2019-04-22T10:16:59.861Z,4960.00
2019-04-22T10:18:04.598Z,5000.00
2019-04-22T10:19:04.260Z,5012.00
2019-04-22T10:20:02.475Z,5048.00
2019-04-22T10:20:54.188Z,5084.00
2019-04-22T10:23:07.943Z,5156.00
2019-04-22T10:24:07.756Z,5180.00
2019-04-22T10:25:03.297Z,5224.00
2019-04-22T10:26:04.602Z,5260.00
2019-04-22T10:27:02.029Z,5372.00
2019-04-22T10:28:09.212Z,5128.00
2019-04-22T10:29:08.569Z,5504.00
2019-04-22T10:30:59.887Z,5900.00
2019-04-22T10:32:00.813Z,5980.00
2019-04-22T10:33:02.783Z,6356.00
2019-04-22T10:33:54.779Z,8268.00
2019-04-22T10:34:44.455Z,17088.00
2019-04-22T10:35:37.331Z,43744.00
2019-04-22T10:36:37.708Z,41696.00
2019-04-22T10:37:36.565Z,20320.00
2019-04-22T10:38:36.764Z,5660.00
2019-04-22T10:39:43.949Z,4568.00
2019-04-22T10:40:36.724Z,4104.00
2019-04-22T10:41:36.656Z,3948.00
2019-04-22T10:42:35.707Z,3896.00
2019-04-22T10:43:36.983Z,3828.00
2019-04-22T10:44:37.203Z,3840.00
2019-04-22T10:45:36.206Z,3768.00
2019-04-22T10:46:36.050Z,3772.00
2019-04-22T10:47:36.024Z,3772.00
2019-04-22T10:48:36.603Z,3768.00
2019-04-22T10:49:36.156Z,3776.00
2019-04-22T10:50:36.345Z,3788.00
2019-04-22T10:51:36.844Z,3772.00
2019-04-22T10:52:35.598Z,3776.00
2019-04-22T10:53:35.686Z,3764.00
2019-04-22T10:54:35.823Z,3752.00
2019-04-22T10:55:35.567Z,3776.00
2019-04-22T10:56:36.857Z,3764.00
2019-04-22T10:57:35.993Z,3716.00
2019-04-22T10:58:35.534Z,3692.00
2019-04-22T10:59:36.480Z,3700.00
2019-04-22T11:00:35.606Z,3712.00
2019-04-22T11:01:38.435Z,3720.00
2019-04-22T11:02:35.490Z,3712.00
2019-04-22T11:03:35.488Z,3700.00
2019-04-22T11:04:36.396Z,3708.00
2019-04-22T11:05:35.458Z,3696.00
2019-04-22T11:06:40.978Z,3680.00
2019-04-22T11:07:44.239Z,3668.00
2019-04-22T11:08:44.540Z,3644.00
2019-04-22T11:09:47.697Z,3624.00
2019-04-22T11:10:53.138Z,3588.00
2019-04-22T11:11:46.715Z,3552.00
2019-04-22T11:12:38.023Z,3524.00
2019-04-22T11:13:35.875Z,3520.00
2019-04-22T11:14:36.873Z,3500.00
2019-04-22T11:15:35.364Z,3528.00
2019-04-22T11:16:35.339Z,3540.00
2019-04-22T11:17:35.601Z,3536.00
2019-04-22T11:18:35.769Z,3540.00
2019-04-22T11:19:35.416Z,3544.00
2019-04-22T11:20:35.755Z,3568.00
2019-04-22T11:21:35.983Z,3564.00
2019-04-22T11:22:37.008Z,3552.00
2019-04-22T11:23:36.471Z,3532.00
2019-04-22T11:24:35.253Z,3512.00
2019-04-22T11:25:36.190Z,3500.00
2019-04-22T11:26:36.777Z,3484.00
2019-04-22T11:27:35.292Z,3460.00
2019-04-22T11:28:35.852Z,3436.00
2019-04-22T11:29:35.397Z,3424.00
2019-04-22T11:30:36.673Z,3400.00
2019-04-22T11:31:36.481Z,3384.00
2019-04-22T11:32:36.213Z,3352.00
2019-04-22T11:33:36.391Z,3364.00
2019-04-22T11:34:35.496Z,3340.00
2019-04-22T11:35:35.135Z,3308.00
2019-04-22T11:36:36.935Z,3272.00
2019-04-22T11:37:36.598Z,3248.00
2019-04-22T11:38:37.724Z,3224.00
2019-04-22T11:39:36.695Z,3192.00
2019-04-22T11:40:40.552Z,3160.00
2019-04-22T11:41:36.249Z,3132.00
2019-04-22T11:42:36.347Z,3100.00
2019-04-22T11:43:36.218Z,3084.00
2019-04-22T11:44:35.355Z,3060.00
2019-04-22T11:45:35.433Z,3032.00
2019-04-22T11:46:35.623Z,3008.00
2019-04-22T11:47:35.380Z,2976.00
2019-04-22T11:48:35.946Z,2944.00
2019-04-22T11:49:36.208Z,2928.00
2019-04-22T11:50:35.742Z,2904.00
2019-04-22T11:51:36.087Z,2884.00
2019-04-22T11:52:35.110Z,2864.00
2019-04-22T11:53:34.957Z,2856.00
2019-04-22T11:54:34.938Z,2836.00
2019-04-22T11:55:35.074Z,2812.00
2019-04-22T11:56:35.028Z,2792.00
2019-04-22T11:57:35.033Z,2768.00
2019-04-22T11:58:35.399Z,2752.00
2019-04-22T11:59:36.321Z,2732.00
2019-04-22T12:00:35.123Z,2700.00
2019-04-22T12:01:35.063Z,2668.00
2019-04-22T12:02:34.859Z,2648.00
2019-04-22T12:03:35.784Z,2624.00
2019-04-22T12:04:35.893Z,2608.00
2019-04-22T12:05:34.818Z,2600.00
2019-04-22T12:06:36.000Z,2588.00
2019-04-22T12:07:36.612Z,2576.00
2019-04-22T12:08:35.721Z,2564.00
2019-04-22T12:09:35.307Z,2544.00
2019-04-22T12:10:42.970Z,2532.00
2019-04-22T12:11:36.520Z,2520.00
2019-04-22T12:12:36.230Z,2504.00
2019-04-22T12:13:35.769Z,2496.00
2019-04-22T12:14:36.135Z,2476.00
2019-04-22T12:15:35.182Z,2468.00
2019-04-22T12:16:35.089Z,2448.00
2019-04-22T12:17:36.060Z,2444.00
2019-04-22T12:18:35.388Z,2428.00
2019-04-22T12:19:35.258Z,2420.00
2019-04-22T12:20:35.060Z,2408.00
2019-04-22T12:21:35.223Z,2384.00
2019-04-22T12:22:35.771Z,2380.00
2019-04-22T12:23:34.924Z,2376.00
2019-04-22T12:24:34.620Z,2348.00
2019-04-22T12:25:46.453Z,2344.00
2019-04-22T12:26:35.606Z,2332.00
2019-04-22T12:27:35.065Z,2316.00
2019-04-22T12:28:35.141Z,2308.00
2019-04-22T12:29:35.151Z,2304.00
2019-04-22T12:30:35.245Z,2296.00
2019-04-22T12:31:35.731Z,2292.00
2019-04-22T12:32:35.688Z,2288.00
2019-04-22T12:33:35.098Z,2280.00
2019-04-22T12:34:35.400Z,2260.00
2019-04-22T12:35:34.691Z,2252.00
2019-04-22T12:36:34.486Z,2232.00
2019-04-22T12:37:43.539Z,2220.00
2019-04-22T12:38:35.711Z,2208.00
2019-04-22T12:39:35.706Z,2200.00
2019-04-22T12:40:42.455Z,2184.00
2019-04-22T12:41:35.942Z,2188.00
2019-04-22T12:42:35.380Z,2180.00
2019-04-22T12:43:35.460Z,2176.00
2019-04-22T12:44:37.398Z,2176.00
2019-04-22T12:45:34.397Z,2168.00
2019-04-22T12:46:34.396Z,2172.00
2019-04-22T12:47:35.741Z,2156.00
2019-04-22T12:48:35.021Z,2144.00
2019-04-22T12:49:38.376Z,2140.00
2019-04-22T12:50:40.213Z,2132.00
2019-04-22T12:51:36.649Z,2124.00
2019-04-22T12:52:45.063Z,2108.00
2019-04-22T12:53:36.064Z,2100.00
2019-04-22T12:54:35.151Z,2092.00
2019-04-22T12:55:34.445Z,2084.00
2019-04-22T12:56:35.442Z,2076.00
2019-04-22T12:57:34.721Z,2064.00
2019-04-22T12:58:35.669Z,2056.00
2019-04-22T12:59:35.362Z,2048.00
2019-04-22T13:00:34.423Z,2044.00
2019-04-22T13:01:35.102Z,2032.00
2019-04-22T13:02:34.512Z,2020.00
2019-04-22T13:03:34.243Z,2016.00
2019-04-22T13:04:34.306Z,2004.00
2019-04-22T13:05:35.289Z,2004.00
2019-04-22T13:06:35.426Z,2004.00
2019-04-22T13:07:35.636Z,1992.00
2019-04-22T13:08:34.176Z,1984.00
2019-04-22T13:09:34.143Z,1980.00
2019-04-22T13:10:45.401Z,1968.00
2019-04-22T13:11:36.910Z,1960.00
2019-04-22T13:12:34.972Z,1952.00
2019-04-22T13:13:34.629Z,1944.00
2019-04-22T13:14:34.967Z,1940.00
2019-04-22T13:15:35.071Z,1940.00
2019-04-22T13:16:35.199Z,1932.00
2019-04-22T13:17:34.057Z,1932.00
2019-04-22T13:18:43.386Z,1928.00
2019-04-22T13:19:36.124Z,1928.00
2019-04-22T13:20:34.507Z,1916.00
2019-04-22T13:21:34.015Z,1916.00
2019-04-22T13:22:34.919Z,1912.00
2019-04-22T13:23:34.100Z,1908.00
2019-04-22T13:24:34.188Z,1908.00
2019-04-22T13:25:34.734Z,1900.00
2019-04-22T13:26:33.963Z,1900.00
2019-04-22T13:27:35.126Z,1892.00
2019-04-22T13:28:34.661Z,1888.00
2019-04-22T13:29:34.970Z,1884.00
2019-04-22T13:30:34.636Z,1872.00
2019-04-22T13:31:34.891Z,1868.00
2019-04-22T13:32:34.738Z,1868.00
2019-04-22T13:33:34.679Z,1856.00
2019-04-22T13:34:40.414Z,1860.00
2019-04-22T13:35:36.191Z,1852.00
2019-04-22T13:36:34.617Z,1844.00
2019-04-22T13:37:35.008Z,1840.00
2019-04-22T13:38:35.257Z,1836.00
2019-04-22T13:39:34.844Z,1828.00
2019-04-22T13:40:34.873Z,1824.00
2019-04-22T13:41:40.466Z,1820.00
2019-04-22T13:42:35.443Z,1816.00
2019-04-22T13:43:34.738Z,1812.00
2019-04-22T13:44:33.804Z,1816.00
2019-04-22T13:45:33.986Z,1808.00
2019-04-22T13:46:35.476Z,1800.00
2019-04-22T13:47:50.623Z,1804.00
2019-04-22T13:48:58.957Z,1800.00
2019-04-22T13:51:08.090Z,1796.00